createdAt,value
2023-02-02T00:01:30.049Z,100321.34
2023-02-02T00:03:57.989Z,100310.12
2023-02-02T00:06:26.760Z,100309.09
2023-02-02T00:08:56.135Z,100304.72
2023-02-02T00:11:24.323Z,100314.91
2023-02-02T00:13:51.527Z,100321.84
2023-02-02T00:16:31.035Z,100319.19
2023-02-02T00:19:01.746Z,100315.78
2023-02-02T00:21:29.140Z,100312.22
2023-02-02T00:23:56.242Z,100298.44
2023-02-02T00:26:24.277Z,100294.41
2023-02-02T00:28:51.806Z,100288.28
2023-02-02T00:31:19.058Z,100280.34
2023-02-02T00:33:50.438Z,100273.25
2023-02-02T00:36:19.876Z,100273.94
2023-02-02T00:38:48.585Z,100264.22
2023-02-02T00:41:16.474Z,100258.38
2023-02-02T00:43:43.669Z,100252.34
2023-02-02T00:46:14.864Z,100262.66
2023-02-02T00:48:42.081Z,100263.84
2023-02-02T00:51:09.303Z,100279.31
2023-02-02T00:53:36.740Z,100290.38
2023-02-02T00:56:04.160Z,100308.72
2023-02-02T00:58:31.314Z,100287.13
2023-02-02T01:00:58.830Z,100290.50
2023-02-02T01:03:26.002Z,100292.41
2023-02-02T01:05:53.195Z,100306.44
2023-02-02T01:08:20.624Z,100305.84
2023-02-02T01:10:47.754Z,100307.06
2023-02-02T01:13:15.352Z,100287.41
2023-02-02T01:15:43.272Z,100336.47
2023-02-02T01:18:10.963Z,100307.28
2023-02-02T01:20:38.127Z,100304.16
2023-02-02T01:23:05.570Z,100309.50
2023-02-02T01:25:34.769Z,100311.41
2023-02-02T01:28:01.988Z,100308.25
2023-02-02T01:30:29.437Z,100317.16
2023-02-02T01:32:56.606Z,100313.88
2023-02-02T01:35:24.057Z,100313.19
2023-02-02T01:37:51.667Z,100322.06
2023-02-02T01:40:18.958Z,100330.94
2023-02-02T01:42:46.119Z,100332.09
2023-02-02T01:45:35.108Z,100335.78
2023-02-02T01:48:02.453Z,100343.00
2023-02-02T01:50:33.148Z,100329.50
2023-02-02T01:53:02.527Z,100312.59
2023-02-02T01:55:31.431Z,100306.91
2023-02-02T01:58:06.226Z,100306.25
2023-02-02T02:00:36.977Z,100313.97
2023-02-02T02:03:09.371Z,100322.53
2023-02-02T02:05:41.530Z,100303.75
2023-02-02T02:08:19.051Z,100307.03
2023-02-02T02:10:46.520Z,100305.44
2023-02-02T02:13:14.789Z,100293.53
2023-02-02T02:16:19.709Z,100308.69
2023-02-02T02:19:02.261Z,100284.81
2023-02-02T02:22:16.370Z,100287.38
2023-02-02T02:25:24.700Z,100280.56
2023-02-02T02:28:18.763Z,100272.16
2023-02-02T02:30:53.394Z,100260.97
2023-02-02T02:33:33.021Z,100258.28
2023-02-02T02:36:12.239Z,100283.12
2023-02-02T02:38:45.444Z,100304.66
2023-02-02T02:41:19.215Z,100304.78
2023-02-02T02:43:55.191Z,100300.47
2023-02-02T02:46:23.227Z,100295.97
2023-02-02T02:48:51.056Z,100296.75
2023-02-02T02:51:50.619Z,100297.53
2023-02-02T02:54:22.687Z,100288.81
2023-02-02T02:57:14.606Z,100285.38
2023-02-02T03:00:05.056Z,100305.19
2023-02-02T03:02:54.189Z,100288.78
2023-02-02T03:05:30.871Z,100297.41
2023-02-02T03:08:11.433Z,100299.16
2023-02-02T03:10:41.183Z,100302.72
2023-02-02T03:13:10.016Z,100292.44
2023-02-02T03:15:43.294Z,100293.31
2023-02-02T03:18:12.909Z,100283.25
2023-02-02T03:20:40.364Z,100279.66
2023-02-02T03:23:07.515Z,100279.72
2023-02-02T03:25:35.089Z,100296.81
2023-02-02T03:28:02.415Z,100306.44
2023-02-02T03:30:29.600Z,100308.00
2023-02-02T03:32:57.126Z,100309.81
2023-02-02T03:35:26.125Z,100310.44
2023-02-02T03:37:53.529Z,100309.53
2023-02-02T03:40:20.970Z,100310.38
2023-02-02T03:42:48.162Z,100323.28
2023-02-02T03:45:15.462Z,100324.19
2023-02-02T03:47:42.900Z,100323.28
2023-02-02T03:50:10.492Z,100322.53
2023-02-02T03:52:37.649Z,100323.50
2023-02-02T03:55:05.602Z,100318.22
2023-02-02T03:57:32.797Z,100324.38
2023-02-02T03:59:59.950Z,100316.72
2023-02-02T04:02:27.488Z,100326.22
2023-02-02T04:04:55.011Z,100314.34
2023-02-02T04:07:22.207Z,100298.19
2023-02-02T04:09:49.371Z,100295.81
2023-02-02T04:12:16.958Z,100297.66
2023-02-02T04:14:44.121Z,100295.16
2023-02-02T04:17:11.592Z,100302.25
2023-02-02T04:19:39.221Z,100290.34
2023-02-02T04:22:06.355Z,100301.69
2023-02-02T04:24:33.509Z,100288.19
2023-02-02T04:27:00.963Z,100291.59
2023-02-02T04:29:28.139Z,100302.88
2023-02-02T04:31:55.338Z,100296.16
2023-02-02T04:34:22.768Z,100291.09
2023-02-02T04:36:49.892Z,100289.41
2023-02-02T04:39:17.140Z,100293.69
2023-02-02T04:41:44.524Z,100297.22
2023-02-02T04:44:16.057Z,100294.75
2023-02-02T04:46:44.450Z,100285.41
2023-02-02T04:49:12.317Z,100288.00
2023-02-02T04:51:40.166Z,100285.50
2023-02-02T04:54:07.973Z,100276.12
2023-02-02T04:56:35.638Z,100268.44
2023-02-02T04:59:02.822Z,100271.09
2023-02-02T05:01:30.871Z,100267.81
2023-02-02T05:03:58.630Z,100277.63
2023-02-02T05:06:25.764Z,100260.81
2023-02-02T05:08:52.893Z,100255.09
2023-02-02T05:11:22.147Z,100250.22
2023-02-02T05:13:51.435Z,100265.97
2023-02-02T05:16:19.196Z,100254.41
2023-02-02T05:18:54.955Z,100268.09
2023-02-02T05:21:22.581Z,100268.28
2023-02-02T05:23:50.108Z,100261.59
2023-02-02T05:26:25.791Z,100252.25
2023-02-02T05:28:53.696Z,100256.59
2023-02-02T05:31:21.014Z,100272.09
2023-02-02T05:33:48.358Z,100269.53
2023-02-02T05:36:15.855Z,100277.44
2023-02-02T05:38:42.996Z,100267.13
2023-02-02T05:41:10.183Z,100281.63
2023-02-02T05:43:37.608Z,100278.22
2023-02-02T05:46:04.884Z,100282.56
2023-02-02T05:48:32.323Z,100281.63
2023-02-02T05:51:15.955Z,100275.66
2023-02-02T05:53:45.121Z,100296.03
2023-02-02T05:56:13.903Z,100295.81
2023-02-02T05:58:41.399Z,100292.31
2023-02-02T06:01:09.672Z,100299.06
2023-02-02T06:03:37.182Z,100306.78
2023-02-02T06:06:06.856Z,100319.59
2023-02-02T06:08:34.804Z,100296.50
2023-02-02T06:11:20.157Z,100297.34
2023-02-02T06:13:47.421Z,100312.78
2023-02-02T06:16:14.938Z,100314.56
2023-02-02T06:18:42.227Z,100322.22
2023-02-02T06:21:10.119Z,100330.56
2023-02-02T06:23:37.746Z,100331.31
2023-02-02T06:26:04.884Z,100359.56
2023-02-02T06:28:32.237Z,100354.53
2023-02-02T06:31:07.065Z,100355.31
2023-02-02T06:33:35.437Z,100358.78
2023-02-02T06:36:05.489Z,100361.31
2023-02-02T06:38:32.970Z,100364.84
2023-02-02T06:41:00.597Z,100369.19
2023-02-02T06:43:28.975Z,100358.91
2023-02-02T06:45:59.491Z,100356.34
2023-02-02T06:48:27.081Z,100375.75
2023-02-02T06:50:54.535Z,100368.97
2023-02-02T06:53:24.786Z,100365.47
2023-02-02T06:55:56.171Z,100377.47
2023-02-02T06:58:23.593Z,100390.25
2023-02-02T07:00:50.789Z,100387.69
2023-02-02T07:03:21.392Z,100391.00
2023-02-02T07:05:49.487Z,100403.72
2023-02-02T07:08:16.688Z,100409.69
2023-02-02T07:11:14.288Z,100405.97
2023-02-02T07:13:32.022Z,100410.19
2023-02-02T07:15:59.232Z,100407.53
2023-02-02T07:18:26.624Z,100397.19
2023-02-02T07:20:53.991Z,100401.38
2023-02-02T07:23:21.098Z,100390.28
2023-02-02T07:25:48.164Z,100405.69
2023-02-02T07:28:16.223Z,100388.53
2023-02-02T07:30:43.722Z,100384.12
2023-02-02T07:33:12.453Z,100389.22
2023-02-02T07:35:39.962Z,100395.88
2023-02-02T07:38:07.684Z,100387.94
2023-02-02T07:40:37.249Z,100386.97
2023-02-02T07:43:04.999Z,100392.03
2023-02-02T07:45:32.945Z,100411.47
2023-02-02T07:48:00.618Z,100412.88
2023-02-02T07:50:29.733Z,100414.34
2023-02-02T07:52:59.111Z,100426.28
2023-02-02T07:55:26.218Z,100421.62
2023-02-02T07:57:55.494Z,100442.84
2023-02-02T08:00:23.319Z,100454.00
2023-02-02T08:02:50.963Z,100443.69
2023-02-02T08:05:18.053Z,100450.41
2023-02-02T08:07:45.164Z,100464.66
2023-02-02T08:10:12.618Z,100448.09
2023-02-02T08:12:39.794Z,100444.16
2023-02-02T08:15:07.775Z,100452.66
2023-02-02T08:17:35.267Z,100450.72
2023-02-02T08:20:02.462Z,100455.16
2023-02-02T08:22:29.683Z,100469.59
2023-02-02T08:24:57.146Z,100458.91
2023-02-02T08:27:24.235Z,100461.69
2023-02-02T08:29:51.479Z,100460.41
2023-02-02T08:32:19.175Z,100453.03
2023-02-02T08:34:48.848Z,100468.38
2023-02-02T08:37:16.040Z,100463.53
2023-02-02T08:39:43.539Z,100462.75
2023-02-02T08:42:10.720Z,100449.88
2023-02-02T08:44:52.888Z,100452.28
2023-02-02T08:47:25.463Z,100454.59
2023-02-02T08:49:52.714Z,100442.50
2023-02-02T08:52:19.898Z,100439.03
2023-02-02T08:54:47.368Z,100444.97
2023-02-02T08:57:14.553Z,100437.63
2023-02-02T08:59:41.735Z,100429.44
2023-02-02T09:02:13.759Z,100430.78
2023-02-02T09:04:42.595Z,100442.44
2023-02-02T09:07:10.037Z,100456.69
2023-02-02T09:09:37.197Z,100453.72
2023-02-02T09:12:04.548Z,100463.63
2023-02-02T09:14:32.107Z,100460.91
2023-02-02T09:16:59.381Z,100457.97
2023-02-02T09:19:26.525Z,100451.16
2023-02-02T09:21:53.971Z,100463.47
2023-02-02T09:24:21.188Z,100468.75
2023-02-02T09:26:48.379Z,100486.66
2023-02-02T09:29:17.789Z,100484.22
2023-02-02T09:31:45.163Z,100482.53
2023-02-02T09:34:14.256Z,100473.78
2023-02-02T09:36:42.950Z,100483.81
2023-02-02T09:39:13.184Z,100486.88
2023-02-02T09:41:41.781Z,100479.94
2023-02-02T09:44:48.073Z,100490.03
2023-02-02T09:47:18.235Z,100480.81
2023-02-02T09:49:57.894Z,100485.00
2023-02-02T09:52:39.881Z,100494.56
2023-02-02T09:55:14.464Z,100495.84
2023-02-02T09:57:48.774Z,100487.44
2023-02-02T10:00:29.991Z,100497.34
2023-02-02T10:03:01.755Z,100496.28
2023-02-02T10:05:42.902Z,100504.69
2023-02-02T10:08:23.039Z,100504.13
2023-02-02T10:10:56.347Z,100509.28
2023-02-02T10:13:29.227Z,100501.47
2023-02-02T10:16:05.353Z,100496.06
2023-02-02T10:18:47.319Z,100500.31
2023-02-02T10:21:46.455Z,100515.69
2023-02-02T10:24:22.423Z,100504.66
2023-02-02T10:26:56.016Z,100522.38
2023-02-02T10:29:27.229Z,100517.56
2023-02-02T10:32:05.550Z,100515.88
2023-02-02T10:34:44.390Z,100513.00
2023-02-02T10:37:16.949Z,100507.56
2023-02-02T10:40:21.436Z,100500.38
2023-02-02T10:43:41.726Z,100499.59
2023-02-02T10:46:13.562Z,100495.97
2023-02-02T10:48:42.010Z,100513.84
2023-02-02T10:51:27.525Z,100497.41
2023-02-02T10:53:57.877Z,100496.84
2023-02-02T10:56:37.957Z,100513.91
2023-02-02T10:59:29.318Z,100505.88
2023-02-02T11:02:03.720Z,100493.53
2023-02-02T11:04:54.628Z,100492.69
2023-02-02T11:07:22.114Z,100490.03
2023-02-02T11:09:49.353Z,100491.50
2023-02-02T11:12:23.448Z,100489.34
2023-02-02T11:15:25.637Z,100468.16
2023-02-02T11:17:52.948Z,100502.38
2023-02-02T11:20:35.137Z,100492.09
2023-02-02T11:23:04.641Z,100501.53
2023-02-02T11:25:36.095Z,100493.16
2023-02-02T11:28:19.014Z,100492.47
2023-02-02T11:30:50.472Z,100491.41
2023-02-02T11:33:33.581Z,100482.13
2023-02-02T11:36:03.528Z,100494.91
2023-02-02T11:38:31.056Z,100487.09
2023-02-02T11:41:09.078Z,100484.41
2023-02-02T11:43:41.786Z,100474.63
2023-02-02T11:46:19.200Z,100478.25
2023-02-02T11:49:19.299Z,100487.31
2023-02-02T11:52:04.604Z,100481.72
2023-02-02T11:54:34.460Z,100481.78
2023-02-02T11:57:04.047Z,100481.16
2023-02-02T11:59:32.929Z,100497.44
2023-02-02T12:02:22.319Z,100468.53
2023-02-02T12:04:52.769Z,100482.88
2023-02-02T12:07:26.989Z,100475.16
2023-02-02T12:10:13.701Z,100478.00
2023-02-02T12:12:59.530Z,100465.97
2023-02-02T12:15:33.013Z,100473.72
2023-02-02T12:18:15.419Z,100481.53
2023-02-02T12:20:52.509Z,100469.16
2023-02-02T12:23:47.552Z,100474.16
2023-02-02T12:26:18.725Z,100464.50
2023-02-02T12:28:52.355Z,100481.84
2023-02-02T12:31:41.279Z,100488.22
2023-02-02T12:34:19.986Z,100469.78
2023-02-02T12:37:09.176Z,100470.91
2023-02-02T12:39:55.229Z,100488.22
2023-02-02T12:42:37.667Z,100465.81
2023-02-02T12:45:10.651Z,100473.19
2023-02-02T12:48:00.110Z,100466.19
2023-02-02T12:50:35.273Z,100475.22
2023-02-02T12:53:27.273Z,100469.06
2023-02-02T12:55:57.145Z,100472.06
2023-02-02T12:58:52.963Z,100472.16
2023-02-02T13:01:38.734Z,100477.31
2023-02-02T13:04:23.855Z,100482.13
2023-02-02T13:06:50.815Z,100487.13
2023-02-02T13:09:41.424Z,100473.84
2023-02-02T13:12:10.798Z,100479.66
2023-02-02T13:14:48.259Z,100486.41
2023-02-02T13:17:20.069Z,100491.97
2023-02-02T13:19:53.424Z,100487.41
2023-02-02T13:22:25.493Z,100501.13
2023-02-02T13:24:55.163Z,100489.47
2023-02-02T13:27:23.664Z,100494.03
2023-02-02T13:30:19.244Z,100505.09
2023-02-02T13:32:47.214Z,100509.09
2023-02-02T13:35:43.662Z,100509.66
2023-02-02T13:38:22.148Z,100497.78
2023-02-02T13:40:50.669Z,100501.28
2023-02-02T13:43:43.253Z,100503.88
2023-02-02T13:46:27.649Z,100505.31
2023-02-02T13:49:08.392Z,100517.31
2023-02-02T13:51:51.082Z,100502.09
2023-02-02T13:54:33.805Z,100502.19
2023-02-02T13:57:19.385Z,100492.94
2023-02-02T13:59:53.353Z,100495.47
2023-02-02T14:02:42.128Z,100501.22
2023-02-02T14:05:31.107Z,100498.66
2023-02-02T14:08:18.987Z,100504.69
2023-02-02T14:10:52.359Z,100513.25
2023-02-02T14:13:41.305Z,100504.84
2023-02-02T14:16:21.623Z,100491.16
2023-02-02T14:18:48.909Z,100500.63
2023-02-02T14:21:31.817Z,100516.38
2023-02-02T14:24:03.111Z,100523.25
2023-02-02T14:26:51.697Z,100517.31
2023-02-02T14:29:35.982Z,100509.69
2023-02-02T14:32:08.885Z,100519.94
2023-02-02T14:34:39.828Z,100516.16
2023-02-02T14:37:16.255Z,100518.87
2023-02-02T14:40:05.379Z,100518.75
2023-02-02T14:43:13.142Z,100519.72
2023-02-02T14:45:44.485Z,100522.75
2023-02-02T14:48:19.421Z,100517.53
2023-02-02T14:50:56.375Z,100516.62
2023-02-02T14:53:36.164Z,100517.44
2023-02-02T14:56:08.942Z,100523.25
2023-02-02T14:58:48.566Z,100540.34
2023-02-02T15:01:24.852Z,100517.94
2023-02-02T15:03:57.384Z,100520.53
2023-02-02T15:06:42.195Z,100517.81
2023-02-02T15:09:23.249Z,100507.28
2023-02-02T15:12:01.122Z,100519.28
2023-02-02T15:14:35.431Z,100525.78
2023-02-02T15:17:12.570Z,100532.22
2023-02-02T15:19:42.080Z,100529.00
2023-02-02T15:22:27.369Z,100526.28
2023-02-02T15:24:54.942Z,100532.56
2023-02-02T15:27:24.122Z,100532.13
2023-02-02T15:29:55.284Z,100534.72
2023-02-02T15:32:25.223Z,100532.66
2023-02-02T15:34:55.461Z,100547.12
2023-02-02T15:37:40.196Z,100551.22
2023-02-02T15:40:15.449Z,100551.69
2023-02-02T15:42:53.145Z,100556.34
2023-02-02T15:45:37.953Z,100559.81
2023-02-02T15:48:12.816Z,100558.69
2023-02-02T15:50:46.384Z,100565.41
2023-02-02T15:53:42.975Z,100576.31
2023-02-02T15:56:25.415Z,100577.25
2023-02-02T15:58:55.337Z,100585.97
2023-02-02T16:01:23.852Z,100584.69
2023-02-02T16:03:51.325Z,100579.47
2023-02-02T16:06:19.298Z,100585.97
2023-02-02T16:08:46.704Z,100592.59
2023-02-02T16:11:23.970Z,100587.88
2023-02-02T16:13:59.376Z,100591.69
2023-02-02T16:16:30.602Z,100591.00
2023-02-02T16:19:16.564Z,100584.50
2023-02-02T16:21:55.214Z,100586.00
2023-02-02T16:24:28.706Z,100601.03
2023-02-02T16:26:59.704Z,100604.69
2023-02-02T16:29:28.209Z,100609.44
2023-02-02T16:31:56.218Z,100619.16
2023-02-02T16:34:42.078Z,100633.66
2023-02-02T16:37:16.510Z,100631.75
2023-02-02T16:39:43.990Z,100633.84
2023-02-02T16:42:22.418Z,100630.69
2023-02-02T16:44:50.153Z,100632.16
2023-02-02T16:47:30.484Z,100626.72
2023-02-02T16:50:23.515Z,100631.09
2023-02-02T16:53:05.232Z,100646.87
2023-02-02T16:55:49.516Z,100647.19
2023-02-02T16:58:21.026Z,100654.44
2023-02-02T17:01:02.136Z,100655.50
2023-02-02T17:03:35.432Z,100657.28
2023-02-02T17:06:03.406Z,100671.81
2023-02-02T17:08:38.488Z,100686.09
2023-02-02T17:11:06.062Z,100702.59
2023-02-02T17:13:34.642Z,100699.91
2023-02-02T17:16:02.325Z,100704.75
2023-02-02T17:18:29.752Z,100713.31
2023-02-02T17:20:58.743Z,100724.06
2023-02-02T17:23:28.634Z,100716.84
2023-02-02T17:25:56.105Z,100731.06
2023-02-02T17:28:24.935Z,100729.06
2023-02-02T17:30:58.555Z,100739.03
2023-02-02T17:33:26.769Z,100745.13
2023-02-02T17:35:56.281Z,100750.72
2023-02-02T17:40:52.997Z,100755.37
2023-02-02T17:43:20.502Z,100762.16
2023-02-02T17:45:47.782Z,100755.22
2023-02-02T17:48:15.278Z,100756.78
2023-02-02T17:50:43.688Z,100758.69
2023-02-02T17:53:21.226Z,100775.06
2023-02-02T17:55:53.381Z,100763.22
2023-02-02T17:58:20.616Z,100774.34
2023-02-02T18:00:51.411Z,100784.88
2023-02-02T18:03:24.110Z,100779.94
2023-02-02T18:05:51.333Z,100774.00
2023-02-02T18:08:18.907Z,100778.72
2023-02-02T18:10:46.079Z,100780.44
2023-02-02T18:13:19.425Z,100784.75
2023-02-02T18:15:48.089Z,100795.25
2023-02-02T18:18:15.279Z,100793.72
2023-02-02T18:20:46.516Z,100791.91
2023-02-02T18:23:14.538Z,100792.81
2023-02-02T18:25:41.747Z,100787.91
2023-02-02T18:28:10.420Z,100785.34
2023-02-02T18:30:39.033Z,100793.25
2023-02-02T18:33:08.226Z,100785.66
2023-02-02T18:35:36.745Z,100794.31
2023-02-02T18:38:04.141Z,100786.63
2023-02-02T18:40:31.195Z,100786.59
2023-02-02T18:42:58.279Z,100800.03
2023-02-02T18:45:26.000Z,100796.97
2023-02-02T18:47:53.206Z,100807.44
2023-02-02T18:50:22.034Z,100813.34
2023-02-02T18:52:49.523Z,100816.66
2023-02-02T18:55:16.847Z,100821.72
2023-02-02T18:57:44.192Z,100821.75
2023-02-02T19:00:12.162Z,100817.66
2023-02-02T19:02:39.330Z,100814.97
2023-02-02T19:05:25.607Z,100813.22
2023-02-02T19:07:56.090Z,100828.03
2023-02-02T19:10:24.709Z,100833.16
2023-02-02T19:12:53.074Z,100834.94
2023-02-02T19:15:20.599Z,100831.47
2023-02-02T19:17:50.700Z,100824.53
2023-02-02T19:20:28.836Z,100828.03
2023-02-02T19:23:11.392Z,100837.63
2023-02-02T19:25:44.653Z,100828.03
2023-02-02T19:28:25.504Z,100840.22
2023-02-02T19:30:53.910Z,100850.19
2023-02-02T19:33:21.901Z,100845.25
2023-02-02T19:35:52.465Z,100846.03
2023-02-02T19:38:20.665Z,100841.13
2023-02-02T19:40:48.670Z,100838.50
2023-02-02T19:43:18.749Z,100868.38
2023-02-02T19:45:45.985Z,100841.91
2023-02-02T19:48:18.914Z,100849.63
2023-02-02T19:50:46.557Z,100848.78
2023-02-02T19:53:23.382Z,100860.09
2023-02-02T19:55:51.767Z,100848.97
2023-02-02T19:58:28.229Z,100857.63
2023-02-02T20:00:57.159Z,100861.28
2023-02-02T20:03:29.035Z,100859.69
2023-02-02T20:05:58.657Z,100884.72
2023-02-02T20:08:38.798Z,100876.25
2023-02-02T20:11:36.061Z,100871.09
2023-02-02T20:14:21.593Z,100881.37
2023-02-02T20:17:02.100Z,100900.22
2023-02-02T20:19:36.043Z,100898.50
2023-02-02T20:22:03.705Z,100906.16
2023-02-02T20:24:37.799Z,100905.25
2023-02-02T20:27:21.554Z,100906.09
2023-02-02T20:29:50.684Z,100905.28
2023-02-02T20:32:21.824Z,100909.50
2023-02-02T20:34:51.097Z,100911.31
2023-02-02T20:37:25.760Z,100911.22
2023-02-02T20:39:57.325Z,100920.78
2023-02-02T20:42:24.928Z,100917.38
2023-02-02T20:44:52.883Z,100913.97
2023-02-02T20:47:20.315Z,100918.22
2023-02-02T20:49:47.897Z,100921.63
2023-02-02T20:52:24.117Z,100926.84
2023-02-02T20:54:52.067Z,100932.09
2023-02-02T20:57:19.530Z,100925.34
2023-02-02T20:59:46.647Z,100929.63
2023-02-02T21:02:19.661Z,100935.66
2023-02-02T21:04:48.080Z,100930.53
2023-02-02T21:07:19.597Z,100938.44
2023-02-02T21:09:49.727Z,100944.34
2023-02-02T21:12:17.776Z,100952.06
2023-02-02T21:14:45.132Z,100964.12
2023-02-02T21:17:15.668Z,100974.41
2023-02-02T21:19:43.608Z,100964.22
2023-02-02T21:22:11.679Z,100972.84
2023-02-02T21:24:39.363Z,100979.87
2023-02-02T21:27:06.869Z,100976.44
2023-02-02T21:29:34.829Z,100976.56
2023-02-02T21:32:02.844Z,100976.56
2023-02-02T21:34:30.893Z,100976.53
2023-02-02T21:36:59.104Z,100970.66
2023-02-02T21:39:34.339Z,100977.59
2023-02-02T21:42:07.483Z,100969.06
2023-02-02T21:44:36.388Z,100974.22
2023-02-02T21:47:19.701Z,100969.25
2023-02-02T21:49:46.859Z,100990.66
2023-02-02T21:52:16.208Z,100986.41
2023-02-02T21:54:43.905Z,100988.12
2023-02-02T21:57:18.163Z,100987.31
2023-02-02T21:59:48.911Z,100991.59
2023-02-02T22:02:37.079Z,101001.00
2023-02-02T22:05:20.116Z,101006.94
2023-02-02T22:07:49.113Z,101013.72
2023-02-02T22:10:33.263Z,101013.72
2023-02-02T22:13:01.251Z,101020.53
2023-02-02T22:15:31.437Z,101019.59
2023-02-02T22:17:58.614Z,101023.09
2023-02-02T22:20:35.897Z,101022.25
2023-02-02T22:23:03.955Z,101023.19
2023-02-02T22:25:36.330Z,101027.44
2023-02-02T22:28:21.895Z,101019.69
2023-02-02T22:30:50.831Z,101026.38
2023-02-02T22:33:18.738Z,101035.75
2023-02-02T22:35:46.363Z,101047.88
2023-02-02T22:38:21.749Z,101048.75
2023-02-02T22:40:50.097Z,101047.00
2023-02-02T22:43:20.195Z,101056.53
2023-02-02T22:45:47.829Z,101049.72
2023-02-02T22:48:15.741Z,101072.97
2023-02-02T22:50:42.962Z,101061.13
2023-02-02T22:53:10.346Z,101067.87
2023-02-02T22:55:37.742Z,101069.56
2023-02-02T22:58:04.866Z,101076.34
2023-02-02T23:00:33.164Z,101086.66
2023-02-02T23:03:00.954Z,101084.16
2023-02-02T23:05:28.362Z,101089.25
2023-02-02T23:07:55.925Z,101089.09
2023-02-02T23:10:26.039Z,101098.47
2023-02-02T23:12:55.133Z,101095.91
2023-02-02T23:15:22.633Z,101095.78
2023-02-02T23:17:50.395Z,101094.87
2023-02-02T23:20:17.630Z,101094.87
2023-02-02T23:22:44.802Z,101100.88
2023-02-02T23:25:13.080Z,101104.37
2023-02-02T23:27:40.811Z,101115.72
2023-02-02T23:30:09.631Z,101119.22
2023-02-02T23:32:37.007Z,101125.88
2023-02-02T23:35:05.801Z,101115.75
2023-02-02T23:37:33.036Z,101116.62
2023-02-02T23:40:00.418Z,101116.56
2023-02-02T23:42:27.499Z,101125.84
2023-02-02T23:44:54.603Z,101125.13
2023-02-02T23:47:21.972Z,101129.34
2023-02-02T23:49:49.092Z,101131.84
2023-02-02T23:52:16.220Z,101130.16
2023-02-02T23:54:43.763Z,101134.53
2023-02-02T23:57:10.928Z,101139.75
2023-02-02T23:59:38.056Z,101145.81
